createdAt,value
2017-06-05T00:01:02.213Z,1003.75
2017-06-05T00:03:26.069Z,1003.74
2017-06-05T00:05:36.395Z,1003.73
2017-06-05T00:07:38.266Z,1003.77
2017-06-05T00:09:40.051Z,1003.69
2017-06-05T00:13:39.996Z,1003.71
2017-06-05T00:16:05.803Z,1003.64
2017-06-05T00:20:05.692Z,1003.66
2017-06-05T00:22:31.443Z,1003.65
2017-06-05T00:25:11.100Z,1003.66
2017-06-05T00:27:36.929Z,1003.61
2017-06-05T00:30:00.701Z,1003.61
2017-06-05T00:34:01.684Z,1003.55
2017-06-05T00:38:08.554Z,1003.57
2017-06-05T00:40:25.971Z,1003.57
2017-06-05T00:44:25.880Z,1003.48
2017-06-05T00:47:06.273Z,1003.45
2017-06-05T00:51:15.156Z,1003.39
2017-06-05T00:55:14.524Z,1003.41
2017-06-05T00:57:16.425Z,1003.42
2017-06-05T00:59:31.766Z,1003.39
2017-06-05T01:01:54.708Z,1003.38
2017-06-05T01:04:19.517Z,1003.26
2017-06-05T01:08:10.968Z,1003.29
2017-06-05T01:12:02.447Z,1003.24
2017-06-05T01:16:02.372Z,1003.24
2017-06-05T01:18:26.184Z,1003.26
2017-06-05T01:20:56.825Z,1003.25
2017-06-05T01:25:04.690Z,1003.25
2017-06-05T01:29:04.545Z,1003.22
2017-06-05T01:33:12.829Z,1003.2
2017-06-05T01:35:29.183Z,1003.16
2017-06-05T01:38:08.747Z,1003.09
2017-06-05T01:40:47.163Z,1003.04
2017-06-05T01:44:47.056Z,1002.9
2017-06-05T01:48:30.868Z,1002.86
2017-06-05T01:50:32.765Z,1002.86
2017-06-05T01:54:32.148Z,1002.9
2017-06-05T01:58:25.724Z,1002.92
2017-06-05T02:02:25.604Z,1002.89
2017-06-05T02:04:49.421Z,1002.83
2017-06-05T02:08:40.883Z,1002.79
2017-06-05T02:11:05.656Z,1002.78
2017-06-05T02:15:05.521Z,1002.75
2017-06-05T02:17:31.327Z,1002.75
2017-06-05T02:21:31.153Z,1002.76
2017-06-05T02:23:56.956Z,1002.8
2017-06-05T02:26:37.617Z,1002.84
2017-06-05T02:29:10.105Z,1002.91
2017-06-05T02:31:35.945Z,1002.9
2017-06-05T02:35:35.863Z,1002.94
2017-06-05T02:37:59.831Z,1002.99
2017-06-05T02:41:59.720Z,1003.06
2017-06-05T02:44:39.114Z,1003.15
2017-06-05T02:48:38.998Z,1003.1
2017-06-05T02:52:30.451Z,1003.1
2017-06-05T02:55:10.851Z,1003.08
2017-06-05T03:00:38.443Z,1003.18
2017-06-05T03:03:09.784Z,1003.17
2017-06-05T03:08:46.831Z,1003.14
2017-06-05T03:11:12.624Z,1003.1
2017-06-05T03:16:48.600Z,1003.15
2017-06-05T03:19:14.414Z,1003.19
2017-06-05T03:23:17.145Z,1003.2
2017-06-05T03:25:41.911Z,1003.2
2017-06-05T03:29:41.789Z,1003.13
2017-06-05T03:33:41.632Z,1003.1
2017-06-05T03:37:41.470Z,1003.13
2017-06-05T03:41:41.340Z,1003.16
2017-06-05T03:43:51.649Z,1003.08
2017-06-05T03:47:51.555Z,1003.08
2017-06-05T03:50:15.306Z,1003.11
2017-06-05T03:54:14.668Z,1003.03
2017-06-05T03:58:14.040Z,1003.07
2017-06-05T04:00:45.498Z,1003.13
2017-06-05T04:03:10.298Z,1003.16
2017-06-05T04:05:36.025Z,1003.19
2017-06-05T04:09:50.327Z,1003.1
2017-06-05T04:12:06.667Z,1003.06
2017-06-05T04:16:13.598Z,1003.04
2017-06-05T04:20:13.527Z,1003.03
2017-06-05T04:24:13.440Z,1002.97
2017-06-05T04:26:39.276Z,1002.94
2017-06-05T04:29:09.814Z,1002.92
2017-06-05T04:31:20.145Z,1002.93
2017-06-05T04:33:44.048Z,1002.89
2017-06-05T04:36:14.160Z,1002.9
2017-06-05T04:38:21.129Z,1002.97
2017-06-05T04:40:44.012Z,1003.01
2017-06-05T04:44:46.843Z,1003.03
2017-06-05T04:48:46.775Z,1002.98
2017-06-05T04:52:46.720Z,1002.99
2017-06-05T04:55:18.141Z,1002.95
2017-06-05T04:57:35.547Z,1002.96
2017-06-05T05:00:00.349Z,1002.94
2017-06-05T05:02:40.123Z,1002.95
2017-06-05T05:06:40.103Z,1002.93
2017-06-05T05:10:31.623Z,1002.98
2017-06-05T05:12:35.513Z,1002.96
2017-06-05T05:14:59.463Z,1002.94
2017-06-05T05:18:58.916Z,1002.96
2017-06-05T05:21:22.762Z,1002.93
2017-06-05T05:23:48.584Z,1002.98
2017-06-05T05:26:12.459Z,1003.03
2017-06-05T05:28:11.014Z,1002.99
2017-06-05T05:30:34.926Z,1003.02
2017-06-05T05:32:58.796Z,1002.99
2017-06-05T05:35:05.889Z,1002.99
2017-06-05T05:37:30.674Z,1002.98
2017-06-05T05:39:55.574Z,1002.97
2017-06-05T05:42:20.480Z,1002.97
2017-06-05T05:44:44.352Z,1003.01
2017-06-05T05:47:09.268Z,1002.98
2017-06-05T05:49:33.136Z,1003.02
2017-06-05T05:51:43.028Z,1003
2017-06-05T05:53:59.488Z,1003
2017-06-05T05:56:23.359Z,1002.95
2017-06-05T05:58:48.359Z,1002.98
2017-06-05T06:01:12.263Z,1003.02
2017-06-05T06:03:36.239Z,1003.04
2017-06-05T06:06:02.160Z,1003.07
2017-06-05T06:08:26.148Z,1003.1
2017-06-05T06:10:50.126Z,1003.09
2017-06-05T06:13:05.677Z,1003.12
2017-06-05T06:15:29.679Z,1003.1
2017-06-05T06:17:45.252Z,1003.12
2017-06-05T06:20:09.254Z,1003.09
2017-06-05T06:22:33.167Z,1003.16
2017-06-05T06:24:57.110Z,1003.17
2017-06-05T06:27:27.854Z,1003.15
2017-06-05T06:29:52.853Z,1003.12
2017-06-05T06:32:16.832Z,1003.07
2017-06-05T06:34:41.836Z,1003.01
2017-06-05T06:37:05.820Z,1003.04
2017-06-05T06:39:29.791Z,1003.03
2017-06-05T06:41:45.368Z,1002.99
2017-06-05T06:44:10.381Z,1003.01
2017-06-05T06:46:35.388Z,1003.03
2017-06-05T06:48:45.282Z,1003.01
2017-06-05T06:51:00.926Z,1002.97
2017-06-05T06:53:24.902Z,1003
2017-06-05T06:55:48.880Z,1002.99
2017-06-05T06:58:12.861Z,1003
2017-06-05T07:00:28.413Z,1003.01
2017-06-05T07:02:38.309Z,1002.98
2017-06-05T07:05:02.385Z,1002.95
2017-06-05T07:07:19.058Z,1002.98
2017-06-05T07:09:35.684Z,1002.96
2017-06-05T07:12:00.804Z,1002.96
2017-06-05T07:14:18.450Z,1003.04
2017-06-05T07:16:42.523Z,1003.08
2017-06-05T07:19:08.653Z,1003.05
2017-06-05T07:21:24.397Z,1003.02
2017-06-05T07:23:40.031Z,1003.07
2017-06-05T07:25:55.711Z,1003.05
2017-06-05T07:28:19.775Z,1003.03
2017-06-05T07:30:43.872Z,1003.06
2017-06-05T07:32:45.750Z,1003.07
2017-06-05T07:35:09.805Z,1003.05
2017-06-05T07:37:33.883Z,1003.06
2017-06-05T07:39:57.964Z,1003.06
2017-06-05T07:42:22.050Z,1003.06
2017-06-05T07:44:46.127Z,1003
2017-06-05T07:47:01.773Z,1002.99
2017-06-05T07:49:25.795Z,1002.92
2017-06-05T07:51:41.372Z,1002.93
2017-06-05T07:53:43.286Z,1002.92
2017-06-05T07:55:58.886Z,1002.89
2017-06-05T07:58:23.009Z,1002.83
2017-06-05T08:00:47.082Z,1002.83
2017-06-05T08:03:11.167Z,1002.84
2017-06-05T08:05:35.251Z,1002.82
2017-06-05T08:07:59.271Z,1002.83
2017-06-05T08:10:23.321Z,1002.86
2017-06-05T08:12:47.407Z,1002.88
2017-06-05T08:15:11.482Z,1002.93
2017-06-05T08:17:35.559Z,1002.93
2017-06-05T08:19:59.646Z,1002.94
2017-06-05T08:22:23.729Z,1002.96
2017-06-05T08:24:39.406Z,1002.99
2017-06-05T08:27:03.498Z,1003.05
2017-06-05T08:29:27.598Z,1003.07
2017-06-05T08:31:51.657Z,1002.98
2017-06-05T08:34:15.708Z,1002.98
2017-06-05T08:36:31.432Z,1002.96
2017-06-05T08:38:55.519Z,1002.95
2017-06-05T08:41:19.594Z,1002.91
2017-06-05T08:43:35.281Z,1002.96
2017-06-05T08:45:59.355Z,1002.95
2017-06-05T08:48:23.441Z,1002.97
2017-06-05T08:50:47.528Z,1002.99
2017-06-05T08:53:03.215Z,1003
2017-06-05T08:55:27.398Z,1002.97
2017-06-05T08:57:51.473Z,1003
2017-06-05T09:00:07.167Z,1002.89
2017-06-05T09:02:14.463Z,1002.91
2017-06-05T09:04:38.638Z,1002.85
2017-06-05T09:07:02.732Z,1002.81
2017-06-05T09:09:26.910Z,1002.76
2017-06-05T09:11:51.103Z,1002.76
2017-06-05T09:14:06.780Z,1002.67
2017-06-05T09:16:30.977Z,1002.7
2017-06-05T09:18:55.148Z,1002.72
2017-06-05T09:21:19.342Z,1002.7
2017-06-05T09:23:29.780Z,1002.67
2017-06-05T09:25:54.092Z,1002.7
2017-06-05T09:28:18.274Z,1002.75
2017-06-05T09:30:42.444Z,1002.79
2017-06-05T09:33:07.674Z,1002.81
2017-06-05T09:35:31.862Z,1002.81
2017-06-05T09:37:56.139Z,1002.8
2017-06-05T09:40:20.363Z,1002.78
2017-06-05T09:42:30.844Z,1002.66
2017-06-05T09:44:57.135Z,1002.68
2017-06-05T09:47:21.369Z,1002.65
2017-06-05T09:49:46.148Z,1002.61
2017-06-05T09:52:00.218Z,1002.61
2017-06-05T09:54:31.169Z,1002.62
2017-06-05T09:56:57.509Z,1002.64
2017-06-05T09:59:28.666Z,1002.62
2017-06-05T10:02:08.667Z,1002.71
2017-06-05T10:04:35.040Z,1002.62
2017-06-05T10:07:00.385Z,1002.56
2017-06-05T10:09:16.266Z,1002.53
2017-06-05T10:11:40.601Z,1002.47
2017-06-05T10:14:06.921Z,1002.48
2017-06-05T10:16:31.249Z,1002.46
2017-06-05T10:18:55.607Z,1002.48
2017-06-05T10:21:19.946Z,1002.49
2017-06-05T10:23:46.277Z,1002.43
2017-06-05T10:26:10.649Z,1002.47
2017-06-05T10:28:34.981Z,1002.46
2017-06-05T10:30:59.331Z,1002.43
2017-06-05T10:33:06.764Z,1002.43
2017-06-05T10:35:31.093Z,1002.39
2017-06-05T10:37:55.465Z,1002.36
2017-06-05T10:40:06.002Z,1002.35
2017-06-05T10:42:30.380Z,1002.3
2017-06-05T10:44:54.752Z,1002.28
2017-06-05T10:47:19.082Z,1002.27
2017-06-05T10:49:43.433Z,1002.25
2017-06-05T10:51:59.281Z,1002.23
2017-06-05T10:54:23.603Z,1002.16
2017-06-05T10:56:39.466Z,1002.15
2017-06-05T11:00:40.118Z,1002.11
2017-06-05T11:02:42.058Z,1002.04
2017-06-05T11:05:06.329Z,1002
2017-06-05T11:07:30.593Z,1001.97
2017-06-05T11:09:54.883Z,1001.93
2017-06-05T11:12:19.150Z,1001.97
2017-06-05T11:14:43.411Z,1001.92
2017-06-05T11:16:59.251Z,1001.94
2017-06-05T11:19:23.545Z,1001.9
2017-06-05T11:21:39.398Z,1001.87
2017-06-05T11:24:03.685Z,1001.82
2017-06-05T11:26:19.486Z,1001.75
2017-06-05T11:28:35.309Z,1001.7
2017-06-05T11:30:59.566Z,1001.68
2017-06-05T11:33:23.835Z,1001.69
2017-06-05T11:35:48.188Z,1001.69
2017-06-05T11:38:12.490Z,1001.67
2017-06-05T11:40:28.388Z,1001.66
2017-06-05T11:42:52.775Z,1001.58
2017-06-05T11:45:08.696Z,1001.6
2017-06-05T11:47:33.120Z,1001.59
2017-06-05T11:51:33.906Z,1001.54
2017-06-05T11:53:44.450Z,1001.55
2017-06-05T11:56:08.962Z,1001.46
2017-06-05T11:58:33.381Z,1001.48
2017-06-05T12:00:57.857Z,1001.41
2017-06-05T12:03:13.808Z,1001.29
2017-06-05T12:05:38.236Z,1001.37
2017-06-05T12:08:02.661Z,1001.36
2017-06-05T12:10:04.662Z,1001.34
2017-06-05T12:12:29.090Z,1001.34
2017-06-05T12:14:45.050Z,1001.29
2017-06-05T12:17:09.442Z,1001.31
2017-06-05T12:19:25.401Z,1001.22
2017-06-05T12:21:41.344Z,1001.21
2017-06-05T12:23:51.926Z,1001.22
2017-06-05T12:26:16.337Z,1001.23
2017-06-05T12:28:18.266Z,1001.24
2017-06-05T12:30:25.802Z,1001.25
2017-06-05T12:32:50.242Z,1001.2
2017-06-05T12:35:14.673Z,1001.24
2017-06-05T12:37:39.083Z,1001.25
2017-06-05T12:40:03.505Z,1001.21
2017-06-05T12:42:05.485Z,1001.21
2017-06-05T12:45:58.772Z,1001.17
2017-06-05T12:48:23.247Z,1001.17
2017-06-05T12:50:16.763Z,1001.14
2017-06-05T12:52:32.833Z,1001.13
2017-06-05T12:54:48.810Z,1001.1
2017-06-05T12:57:13.258Z,1001.12
2017-06-05T12:59:37.697Z,1001.17
2017-06-05T13:02:03.162Z,1001.12
2017-06-05T13:04:19.148Z,1001.11
2017-06-05T13:06:43.622Z,1001.17
2017-06-05T13:08:59.699Z,1001.22
2017-06-05T13:11:24.205Z,1001.24
2017-06-05T13:13:26.219Z,1001.2
2017-06-05T13:15:50.756Z,1001.18
2017-06-05T13:18:01.284Z,1001.21
2017-06-05T13:20:17.340Z,1001.23
2017-06-05T13:22:41.860Z,1001.18
2017-06-05T13:25:06.386Z,1001.18
2017-06-05T13:27:30.905Z,1001.16
2017-06-05T13:29:46.938Z,1001.11
2017-06-05T13:32:11.427Z,1001.07
2017-06-05T13:34:35.917Z,1001.01
2017-06-05T13:37:00.394Z,1000.96
2017-06-05T13:39:24.836Z,1000.91
2017-06-05T13:41:49.309Z,1000.93
2017-06-05T13:44:05.283Z,1000.86
2017-06-05T13:46:29.733Z,1000.79
2017-06-05T13:48:54.119Z,1000.8
2017-06-05T13:51:18.565Z,1000.78
2017-06-05T13:53:43.050Z,1000.75
2017-06-05T13:56:07.572Z,1000.77
2017-06-05T13:58:32.046Z,1000.77
2017-06-05T14:00:48.118Z,1000.71
2017-06-05T14:03:12.614Z,1000.7
2017-06-05T14:05:29.649Z,1000.65
2017-06-05T14:07:54.161Z,1000.64
2017-06-05T14:10:18.685Z,1000.62
2017-06-05T14:12:34.735Z,1000.56
2017-06-05T14:14:59.269Z,1000.57
2017-06-05T14:17:23.764Z,1000.5
2017-06-05T14:19:48.289Z,1000.53
2017-06-05T14:21:50.307Z,1000.49
2017-06-05T14:24:14.872Z,1000.49
2017-06-05T14:26:30.883Z,1000.45
2017-06-05T14:28:46.905Z,1000.39
2017-06-05T14:31:11.421Z,1000.34
2017-06-05T14:33:35.942Z,1000.29
2017-06-05T14:36:00.435Z,1000.28
2017-06-05T14:38:16.461Z,1000.26
2017-06-05T14:40:32.483Z,1000.21
2017-06-05T14:42:56.935Z,1000.23
2017-06-05T14:45:21.400Z,1000.21
2017-06-05T14:47:45.829Z,1000.13
2017-06-05T14:50:10.254Z,1000.1
2017-06-05T14:52:34.639Z,1000.04
2017-06-05T14:54:59.049Z,1000.03
2017-06-05T14:57:23.465Z,1000.02
2017-06-05T14:59:47.869Z,999.99
2017-06-05T15:02:12.236Z,999.95
2017-06-05T15:04:36.656Z,1000.02
2017-06-05T15:07:01.064Z,999.95
2017-06-05T15:09:25.473Z,999.94
2017-06-05T15:11:41.438Z,999.92
2017-06-05T15:14:05.836Z,999.9
2017-06-05T15:16:30.299Z,999.89
2017-06-05T15:18:54.801Z,999.85
2017-06-05T15:21:19.293Z,999.84
2017-06-05T15:23:43.784Z,999.79
2017-06-05T15:26:08.267Z,999.76
2017-06-05T15:28:32.788Z,999.76
2017-06-05T15:30:57.251Z,999.64
2017-06-05T15:33:13.291Z,999.65
2017-06-05T15:35:37.732Z,999.59
2017-06-05T15:38:02.236Z,999.53
2017-06-05T15:40:26.720Z,999.5
2017-06-05T15:42:51.195Z,999.45
2017-06-05T15:45:15.601Z,999.42
2017-06-05T15:47:40.086Z,999.45
2017-06-05T15:50:04.478Z,999.45
2017-06-05T15:52:28.859Z,999.36
2017-06-05T15:54:44.907Z,999.32
2017-06-05T15:57:09.352Z,999.36
2017-06-05T15:59:33.744Z,999.31
2017-06-05T16:01:44.263Z,999.31
2017-06-05T16:03:54.760Z,999.25
2017-06-05T16:06:19.159Z,999.26
2017-06-05T16:08:43.633Z,999.25
2017-06-05T16:11:08.143Z,999.15
2017-06-05T16:13:32.642Z,999.13
2017-06-05T16:15:57.032Z,999.12
2017-06-05T16:18:21.507Z,999.07
2017-06-05T16:20:23.501Z,998.99
2017-06-05T16:22:47.969Z,998.95
2017-06-05T16:25:12.466Z,998.94
2017-06-05T16:27:36.954Z,998.92
2017-06-05T16:29:52.979Z,998.9
2017-06-05T16:31:54.938Z,998.94
2017-06-05T16:33:56.884Z,998.9
2017-06-05T16:36:21.367Z,998.83
2017-06-05T16:38:45.845Z,998.82
2017-06-05T16:41:10.339Z,998.82
2017-06-05T16:43:26.377Z,998.75
2017-06-05T16:45:50.725Z,998.72
2017-06-05T16:48:15.123Z,998.68
2017-06-05T16:50:39.598Z,998.66
2017-06-05T16:53:04.084Z,998.69
2017-06-05T16:55:28.480Z,998.68
2017-06-05T16:57:52.864Z,998.69
2017-06-05T17:00:17.271Z,998.63
2017-06-05T17:02:41.648Z,998.6
2017-06-05T17:04:57.649Z,998.56
2017-06-05T17:07:22.176Z,998.58
2017-06-05T17:09:46.948Z,998.5
2017-06-05T17:12:10.889Z,998.43
2017-06-05T17:14:35.288Z,998.41
2017-06-05T17:16:59.582Z,998.38
2017-06-05T17:19:23.975Z,998.38
2017-06-05T17:21:48.399Z,998.33
2017-06-05T17:24:12.861Z,998.27
2017-06-05T17:26:37.255Z,998.3
2017-06-05T17:29:01.630Z,998.25
2017-06-05T17:31:26.025Z,998.25
2017-06-05T17:33:50.412Z,998.25
2017-06-05T17:36:14.800Z,998.17
2017-06-05T17:38:25.290Z,998.17
2017-06-05T17:40:49.657Z,998.2
2017-06-05T17:43:14.041Z,998.27
2017-06-05T17:45:38.425Z,998.23
2017-06-05T17:48:02.819Z,998.19
2017-06-05T17:50:27.206Z,998.2
2017-06-05T17:52:51.596Z,998.17
2017-06-05T17:55:15.994Z,998.12
2017-06-05T17:57:40.379Z,998.11
2017-06-05T18:00:04.769Z,998.04
2017-06-05T18:02:29.156Z,998.03
2017-06-05T18:04:53.546Z,997.98
2017-06-05T18:06:55.512Z,997.99
2017-06-05T18:09:19.898Z,997.95
2017-06-05T18:11:35.828Z,997.98
2017-06-05T18:14:00.177Z,997.97
2017-06-05T18:16:16.113Z,997.99
2017-06-05T18:18:40.444Z,997.99
2017-06-05T18:21:04.734Z,997.95
2017-06-05T18:23:29.021Z,997.93
2017-06-05T18:25:53.402Z,997.92
2017-06-05T18:28:03.879Z,997.89
2017-06-05T18:30:05.874Z,997.88
2017-06-05T18:32:30.223Z,997.89
2017-06-05T18:34:45.981Z,997.9
2017-06-05T18:37:10.285Z,997.91
2017-06-05T18:39:34.575Z,997.91
2017-06-05T18:41:58.863Z,997.87
2017-06-05T18:44:06.200Z,997.85
2017-06-05T18:46:30.436Z,997.89
2017-06-05T18:48:54.723Z,997.85
2017-06-05T18:51:19.013Z,997.81
2017-06-05T18:53:43.291Z,997.8
2017-06-05T18:56:07.587Z,997.79
2017-06-05T18:58:23.443Z,997.82
2017-06-05T19:00:47.645Z,997.81
2017-06-05T19:03:03.490Z,997.87
2017-06-05T19:05:27.720Z,997.83
2017-06-05T19:07:52.017Z,997.83
2017-06-05T19:10:16.297Z,997.81
2017-06-05T19:12:40.590Z,997.79
2017-06-05T19:15:04.870Z,997.78
2017-06-05T19:17:29.060Z,997.76
2017-06-05T19:19:53.249Z,997.73
2017-06-05T19:22:03.683Z,997.74
2017-06-05T19:24:19.537Z,997.69
2017-06-05T19:26:43.774Z,997.68
2017-06-05T19:28:59.556Z,997.67
2017-06-05T19:31:23.735Z,997.65
2017-06-05T19:33:47.927Z,997.65
2017-06-05T19:36:12.110Z,997.67
2017-06-05T19:38:36.281Z,997.64
2017-06-05T19:41:00.476Z,997.7
2017-06-05T19:43:24.647Z,997.71
2017-06-05T19:45:48.851Z,997.71
2017-06-05T19:48:04.628Z,997.64
2017-06-05T19:50:28.820Z,997.65
2017-06-05T19:52:52.982Z,997.62
2017-06-05T19:55:17.176Z,997.66
2017-06-05T19:57:41.366Z,997.61
2017-06-05T20:00:05.569Z,997.63
2017-06-05T20:02:29.734Z,997.6
2017-06-05T20:04:53.911Z,997.62
2017-06-05T20:07:18.102Z,997.6
2017-06-05T20:09:42.267Z,997.54
2017-06-05T20:12:06.479Z,997.54
2017-06-05T20:14:08.357Z,997.59
2017-06-05T20:16:24.074Z,997.57
2017-06-05T20:18:48.198Z,997.6
2017-06-05T20:20:50.081Z,997.62
2017-06-05T20:23:14.239Z,997.57
2017-06-05T20:25:38.321Z,997.55
2017-06-05T20:28:02.392Z,997.46
2017-06-05T20:30:18.077Z,997.42
2017-06-05T20:32:33.725Z,997.39
2017-06-05T20:34:57.842Z,997.43
2017-06-05T20:37:21.830Z,997.41
2017-06-05T20:39:45.907Z,997.4
2017-06-05T20:42:11.012Z,997.36
2017-06-05T20:44:35.094Z,997.32
2017-06-05T20:46:59.183Z,997.3
2017-06-05T20:49:23.264Z,997.33
2017-06-05T20:51:47.352Z,997.24
2017-06-05T20:53:57.760Z,997.23
2017-06-05T20:56:13.350Z,997.17
2017-06-05T20:58:37.362Z,997.13
2017-06-05T21:01:01.440Z,997.14
2017-06-05T21:03:25.549Z,997.13
2017-06-05T21:05:41.174Z,997.07
2017-06-05T21:08:05.189Z,997.08
2017-06-05T21:10:29.270Z,997.04
2017-06-05T21:12:31.179Z,997.04
2017-06-05T21:14:55.327Z,997.01
2017-06-05T21:17:10.997Z,996.99
2017-06-05T21:19:18.151Z,996.9
2017-06-05T21:21:42.161Z,996.88
2017-06-05T21:24:06.247Z,996.92
2017-06-05T21:26:21.828Z,996.88
2017-06-05T21:28:45.836Z,996.8
2017-06-05T21:31:09.779Z,996.81
2017-06-05T21:33:33.874Z,996.76
2017-06-05T21:35:57.947Z,996.73
2017-06-05T21:38:21.929Z,996.72
2017-06-05T21:40:37.474Z,996.65
2017-06-05T21:42:38.843Z,996.63
2017-06-05T21:44:31.721Z,996.57
2017-06-05T21:46:47.348Z,996.53
2017-06-05T21:49:11.369Z,996.48
2017-06-05T21:51:35.345Z,996.47
2017-06-05T21:53:59.321Z,996.47
2017-06-05T21:56:23.300Z,996.43
2017-06-05T21:58:47.286Z,996.4
2017-06-05T22:01:11.254Z,996.37
2017-06-05T22:03:35.238Z,996.28
2017-06-05T22:05:50.819Z,996.29
2017-06-05T22:08:14.700Z,996.27
2017-06-05T22:10:38.674Z,996.26
2017-06-05T22:13:02.652Z,996.23
2017-06-05T22:15:26.641Z,996.21
2017-06-05T22:17:50.619Z,996.14
2017-06-05T22:20:14.597Z,996.08
2017-06-05T22:22:38.581Z,996.05
2017-06-05T22:24:54.125Z,996.01
2017-06-05T22:27:18.137Z,995.97
2017-06-05T22:29:42.125Z,995.96
2017-06-05T22:32:06.097Z,995.92
2017-06-05T22:34:30.072Z,995.89
2017-06-05T22:36:54.054Z,995.83
2017-06-05T22:39:18.030Z,995.83
2017-06-05T22:41:33.585Z,995.79
2017-06-05T22:43:57.485Z,995.69
2017-06-05T22:46:21.459Z,995.65
2017-06-05T22:48:36.923Z,995.65
2017-06-05T22:51:00.830Z,995.65
2017-06-05T22:53:24.809Z,995.61
2017-06-05T22:55:48.789Z,995.58
2017-06-05T22:58:12.771Z,995.54
2017-06-05T23:00:36.740Z,995.48
2017-06-05T23:03:00.734Z,995.48
2017-06-05T23:05:16.199Z,995.45
2017-06-05T23:07:31.679Z,995.45
2017-06-05T23:09:55.664Z,995.44
2017-06-05T23:12:19.648Z,995.47
2017-06-05T23:14:35.116Z,995.46
2017-06-05T23:16:50.686Z,995.39
2017-06-05T23:19:14.580Z,995.38
2017-06-05T23:21:38.575Z,995.36
2017-06-05T23:24:02.540Z,995.29
2017-06-05T23:26:26.420Z,995.26
2017-06-05T23:28:36.298Z,995.29
2017-06-05T23:30:46.158Z,995.28
2017-06-05T23:33:10.088Z,995.28
2017-06-05T23:35:25.538Z,995.21
2017-06-05T23:37:41.053Z,995.16
2017-06-05T23:40:05.036Z,995.14
2017-06-05T23:42:14.910Z,995.07
2017-06-05T23:44:24.745Z,995.03
2017-06-05T23:46:48.710Z,995.03
2017-06-05T23:49:12.584Z,994.97
2017-06-05T23:51:28.061Z,994.98
2017-06-05T23:53:51.934Z,994.93
2017-06-05T23:56:07.385Z,994.95
2017-06-05T23:58:31.292Z,994.91
